sensor_id;sensor_type;location;lat;lon;timestamp;pressure;altitude;pressure_sealevel;temperature;humidity
74169;BME280;62523;53.336;83.690;2023-05-29T00:00:48;99479.34;;;13.40;39.19
74169;BME280;62523;53.336;83.690;2023-05-29T00:05:49;99486.25;;;12.58;42.18
74169;BME280;62523;53.336;83.690;2023-05-29T00:10:51;99496.66;;;11.88;44.78
74169;BME280;62523;53.336;83.690;2023-05-29T00:15:52;99492.78;;;12.24;44.01
74169;BME280;62523;53.336;83.690;2023-05-29T00:20:54;99498.72;;;12.56;42.83
74169;BME280;62523;53.336;83.690;2023-05-29T00:25:56;99498.72;;;12.42;42.43
74169;BME280;62523;53.336;83.690;2023-05-29T00:30:57;99495.47;;;12.80;41.39
74169;BME280;62523;53.336;83.690;2023-05-29T00:35:59;99494.69;;;13.48;39.53
74169;BME280;62523;53.336;83.690;2023-05-29T00:41:01;99488.59;;;14.64;36.91
74169;BME280;62523;53.336;83.690;2023-05-29T00:46:04;99492.50;;;15.69;33.88
74169;BME280;62523;53.336;83.690;2023-05-29T00:51:05;99502.16;;;14.47;36.13
74169;BME280;62523;53.336;83.690;2023-05-29T00:56:08;99489.97;;;14.19;37.01
74169;BME280;62523;53.336;83.690;2023-05-29T01:01:10;99491.03;;;14.42;36.86
74169;BME280;62523;53.336;83.690;2023-05-29T01:06:12;99487.66;;;15.15;35.57
74169;BME280;62523;53.336;83.690;2023-05-29T01:16:40;99495.59;;;14.65;36.11
74169;BME280;62523;53.336;83.690;2023-05-29T01:22:54;99496.75;;;14.48;37.14
74169;BME280;62523;53.336;83.690;2023-05-29T01:27:29;99502.69;;;14.26;37.67
74169;BME280;62523;53.336;83.690;2023-05-29T01:32:39;99519.78;;;13.14;42.11
74169;BME280;62523;53.336;83.690;2023-05-29T01:37:41;99530.97;;;12.90;43.50
74169;BME280;62523;53.336;83.690;2023-05-29T01:42:43;99534.28;;;12.79;43.36
74169;BME280;62523;53.336;83.690;2023-05-29T01:47:45;99534.19;;;12.66;43.52
74169;BME280;62523;53.336;83.690;2023-05-29T01:52:47;99539.31;;;12.69;42.68
74169;BME280;62523;53.336;83.690;2023-05-29T01:57:49;99535.78;;;12.83;42.71
74169;BME280;62523;53.336;83.690;2023-05-29T02:02:52;99535.25;;;12.64;43.70
74169;BME280;62523;53.336;83.690;2023-05-29T02:07:53;99539.75;;;12.90;43.59
74169;BME280;62523;53.336;83.690;2023-05-29T02:12:55;99547.44;;;13.22;42.56
74169;BME280;62523;53.336;83.690;2023-05-29T02:17:58;99542.78;;;13.55;41.74
74169;BME280;62523;53.336;83.690;2023-05-29T02:23:03;99537.25;;;14.50;38.75
74169;BME280;62523;53.336;83.690;2023-05-29T02:28:06;99526.91;;;15.47;36.64
74169;BME280;62523;53.336;83.690;2023-05-29T02:33:07;99525.81;;;16.44;34.77
74169;BME280;62523;53.336;83.690;2023-05-29T02:38:09;99515.56;;;17.30;32.54
74169;BME280;62523;53.336;83.690;2023-05-29T02:43:13;99534.09;;;16.86;32.50
74169;BME280;62523;53.336;83.690;2023-05-29T02:48:15;99528.13;;;16.37;33.28
74169;BME280;62523;53.336;83.690;2023-05-29T02:53:17;99531.38;;;15.70;36.07
74169;BME280;62523;53.336;83.690;2023-05-29T02:58:19;99531.78;;;16.01;35.76
74169;BME280;62523;53.336;83.690;2023-05-29T03:03:23;99526.16;;;15.82;36.76
74169;BME280;62523;53.336;83.690;2023-05-29T03:08:25;99529.88;;;15.42;38.09
74169;BME280;62523;53.336;83.690;2023-05-29T03:13:27;99540.34;;;15.32;39.17
74169;BME280;62523;53.336;83.690;2023-05-29T03:18:36;99539.19;;;15.24;39.89
74169;BME280;62523;53.336;83.690;2023-05-29T03:23:38;99546.25;;;14.99;41.23
74169;BME280;62523;53.336;83.690;2023-05-29T03:28:40;99534.78;;;14.99;41.83
74169;BME280;62523;53.336;83.690;2023-05-29T03:33:43;99553.38;;;14.99;41.82
74169;BME280;62523;53.336;83.690;2023-05-29T03:39:09;99546.41;;;14.59;42.51
74169;BME280;62523;53.336;83.690;2023-05-29T03:44:11;99540.75;;;14.89;42.40
74169;BME280;62523;53.336;83.690;2023-05-29T03:49:13;99538.28;;;14.99;42.45
74169;BME280;62523;53.336;83.690;2023-05-29T03:54:17;99538.94;;;15.03;42.64
74169;BME280;62523;53.336;83.690;2023-05-29T03:59:19;99551.56;;;14.99;42.90
74169;BME280;62523;53.336;83.690;2023-05-29T04:04:22;99543.72;;;14.98;42.59
74169;BME280;62523;53.336;83.690;2023-05-29T04:09:25;99540.31;;;15.08;42.84
74169;BME280;62523;53.336;83.690;2023-05-29T04:14:27;99548.78;;;15.13;42.36
74169;BME280;62523;53.336;83.690;2023-05-29T04:19:28;99540.72;;;15.15;41.96
74169;BME280;62523;53.336;83.690;2023-05-29T04:24:30;99543.56;;;15.12;42.50
74169;BME280;62523;53.336;83.690;2023-05-29T04:29:33;99545.16;;;15.27;42.32
74169;BME280;62523;53.336;83.690;2023-05-29T04:34:35;99557.53;;;15.27;42.72
74169;BME280;62523;53.336;83.690;2023-05-29T04:39:37;99554.34;;;15.34;42.93
74169;BME280;62523;53.336;83.690;2023-05-29T04:44:39;99562.41;;;15.33;43.42
74169;BME280;62523;53.336;83.690;2023-05-29T04:49:44;99567.31;;;15.26;44.33
74169;BME280;62523;53.336;83.690;2023-05-29T04:54:50;99566.84;;;15.45;44.21
74169;BME280;62523;53.336;83.690;2023-05-29T04:59:52;99562.50;;;15.68;44.07
74169;BME280;62523;53.336;83.690;2023-05-29T05:04:54;99562.13;;;15.62;44.49
74169;BME280;62523;53.336;83.690;2023-05-29T05:09:55;99557.13;;;15.94;44.08
74169;BME280;62523;53.336;83.690;2023-05-29T05:15:01;99557.25;;;16.04;43.71
74169;BME280;62523;53.336;83.690;2023-05-29T05:20:05;99553.88;;;16.48;42.21
74169;BME280;62523;53.336;83.690;2023-05-29T05:25:08;99555.88;;;16.22;42.49
74169;BME280;62523;53.336;83.690;2023-05-29T05:30:10;99548.19;;;16.06;42.34
74169;BME280;62523;53.336;83.690;2023-05-29T05:35:13;99548.56;;;16.13;41.67
74169;BME280;62523;53.336;83.690;2023-05-29T05:40:14;99543.44;;;16.34;41.66
74169;BME280;62523;53.336;83.690;2023-05-29T05:45:38;99539.97;;;16.45;42.37
74169;BME280;62523;53.336;83.690;2023-05-29T05:50:44;99541.06;;;16.42;42.76
74169;BME280;62523;53.336;83.690;2023-05-29T05:55:46;99529.66;;;15.93;44.51
74169;BME280;62523;53.336;83.690;2023-05-29T06:00:49;99529.66;;;16.17;44.81
74169;BME280;62523;53.336;83.690;2023-05-29T06:05:54;99527.63;;;15.86;45.78
74169;BME280;62523;53.336;83.690;2023-05-29T06:10:56;99546.78;;;15.65;45.97
74169;BME280;62523;53.336;83.690;2023-05-29T06:15:58;99567.03;;;15.42;47.62
74169;BME280;62523;53.336;83.690;2023-05-29T06:21:00;99546.78;;;15.04;50.78
74169;BME280;62523;53.336;83.690;2023-05-29T06:26:03;99551.84;;;14.05;52.88
74169;BME280;62523;53.336;83.690;2023-05-29T06:31:04;99547.69;;;14.01;54.29
74169;BME280;62523;53.336;83.690;2023-05-29T06:36:06;99565.72;;;13.68;61.04
74169;BME280;62523;53.336;83.690;2023-05-29T06:41:09;99557.75;;;13.41;62.37
74169;BME280;62523;53.336;83.690;2023-05-29T06:46:11;99575.59;;;13.52;64.17
74169;BME280;62523;53.336;83.690;2023-05-29T06:51:13;99582.59;;;13.53;66.92
74169;BME280;62523;53.336;83.690;2023-05-29T06:56:14;99589.47;;;13.27;67.93
74169;BME280;62523;53.336;83.690;2023-05-29T07:07:02;99571.75;;;13.00;73.30
74169;BME280;62523;53.336;83.690;2023-05-29T07:12:04;99555.31;;;13.24;68.96
74169;BME280;62523;53.336;83.690;2023-05-29T07:17:07;99543.41;;;13.31;69.37
74169;BME280;62523;53.336;83.690;2023-05-29T07:22:09;99541.41;;;13.20;71.07
74169;BME280;62523;53.336;83.690;2023-05-29T07:27:12;99525.75;;;13.31;71.11
74169;BME280;62523;53.336;83.690;2023-05-29T07:32:14;99537.53;;;13.40;70.19
74169;BME280;62523;53.336;83.690;2023-05-29T07:37:15;99535.44;;;13.72;72.07
74169;BME280;62523;53.336;83.690;2023-05-29T07:42:18;99525.53;;;14.02;67.55
74169;BME280;62523;53.336;83.690;2023-05-29T07:47:19;99524.75;;;13.87;66.59
74169;BME280;62523;53.336;83.690;2023-05-29T07:52:22;99522.38;;;13.97;68.64
74169;BME280;62523;53.336;83.690;2023-05-29T07:57:24;99508.84;;;14.27;67.56
74169;BME280;62523;53.336;83.690;2023-05-29T08:02:38;99516.91;;;14.64;65.68
74169;BME280;62523;53.336;83.690;2023-05-29T08:08:05;99518.59;;;14.78;64.36
74169;BME280;62523;53.336;83.690;2023-05-29T08:13:10;99514.13;;;14.91;62.60
74169;BME280;62523;53.336;83.690;2023-05-29T08:18:13;99514.91;;;15.17;61.08
74169;BME280;62523;53.336;83.690;2023-05-29T08:23:15;99514.13;;;14.91;62.01
74169;BME280;62523;53.336;83.690;2023-05-29T08:28:17;99503.63;;;15.50;60.02
74169;BME280;62523;53.336;83.690;2023-05-29T08:33:19;99496.09;;;15.44;59.45
74169;BME280;62523;53.336;83.690;2023-05-29T08:38:21;99492.81;;;15.53;57.71
74169;BME280;62523;53.336;83.690;2023-05-29T08:43:23;99495.72;;;15.86;56.17
74169;BME280;62523;53.336;83.690;2023-05-29T08:48:24;99490.03;;;15.79;56.53
74169;BME280;62523;53.336;83.690;2023-05-29T08:53:27;99501.53;;;15.67;55.48
74169;BME280;62523;53.336;83.690;2023-05-29T08:58:28;99498.59;;;15.34;54.04
74169;BME280;62523;53.336;83.690;2023-05-29T09:03:30;99491.88;;;15.42;54.41
74169;BME280;62523;53.336;83.690;2023-05-29T09:08:32;99478.19;;;15.59;52.95
74169;BME280;62523;53.336;83.690;2023-05-29T09:13:34;99485.97;;;15.62;54.16
74169;BME280;62523;53.336;83.690;2023-05-29T09:18:36;99481.19;;;16.14;50.91
74169;BME280;62523;53.336;83.690;2023-05-29T09:23:38;99475.78;;;16.15;51.11
74169;BME280;62523;53.336;83.690;2023-05-29T09:28:40;99474.22;;;16.92;47.58
74169;BME280;62523;53.336;83.690;2023-05-29T09:33:49;99471.31;;;16.38;48.87
74169;BME280;62523;53.336;83.690;2023-05-29T09:38:52;99462.13;;;16.20;50.58
74169;BME280;62523;53.336;83.690;2023-05-29T09:43:55;99461.25;;;16.20;48.66
74169;BME280;62523;53.336;83.690;2023-05-29T09:49:01;99464.13;;;15.94;48.03
74169;BME280;62523;53.336;83.690;2023-05-29T09:54:15;99458.03;;;15.81;48.98
74169;BME280;62523;53.336;83.690;2023-05-29T09:59:16;99451.84;;;16.27;47.70
74169;BME280;62523;53.336;83.690;2023-05-29T10:04:19;99431.31;;;16.29;46.94
74169;BME280;62523;53.336;83.690;2023-05-29T10:09:22;99436.97;;;16.13;47.28
74169;BME280;62523;53.336;83.690;2023-05-29T10:14:28;99437.47;;;16.18;46.11
74169;BME280;62523;53.336;83.690;2023-05-29T10:19:33;99432.84;;;16.09;47.25
74169;BME280;62523;53.336;83.690;2023-05-29T10:24:37;99438.81;;;16.46;46.99
74169;BME280;62523;53.336;83.690;2023-05-29T10:29:50;99434.28;;;17.03;45.01
74169;BME280;62523;53.336;83.690;2023-05-29T10:35:11;99437.31;;;16.08;49.25
74169;BME280;62523;53.336;83.690;2023-05-29T10:40:23;99448.28;;;15.92;48.75
74169;BME280;62523;53.336;83.690;2023-05-29T10:50:46;99455.88;;;15.74;48.50
74169;BME280;62523;53.336;83.690;2023-05-29T10:55:47;99461.06;;;15.87;49.28
74169;BME280;62523;53.336;83.690;2023-05-29T11:00:50;99479.53;;;15.53;49.70
74169;BME280;62523;53.336;83.690;2023-05-29T11:06:01;99520.91;;;15.32;51.48
74169;BME280;62523;53.336;83.690;2023-05-29T11:11:05;99574.06;;;15.06;56.14
74169;BME280;62523;53.336;83.690;2023-05-29T11:16:20;99596.16;;;11.86;98.79
74169;BME280;62523;53.336;83.690;2023-05-29T11:21:49;99596.22;;;10.89;100.00
74169;BME280;62523;53.336;83.690;2023-05-29T11:26:56;99598.25;;;10.66;100.00
74169;BME280;62523;53.336;83.690;2023-05-29T11:32:05;99551.59;;;10.35;100.00
74169;BME280;62523;53.336;83.690;2023-05-29T11:37:08;99417.38;;;10.34;100.00
74169;BME280;62523;53.336;83.690;2023-05-29T11:42:11;99446.63;;;10.45;100.00
74169;BME280;62523;53.336;83.690;2023-05-29T11:47:12;99484.38;;;10.77;100.00
74169;BME280;62523;53.336;83.690;2023-05-29T11:52:16;99512.00;;;10.70;100.00
74169;BME280;62523;53.336;83.690;2023-05-29T11:57:20;99515.25;;;10.75;100.00
74169;BME280;62523;53.336;83.690;2023-05-29T12:02:22;99512.47;;;10.78;100.00
74169;BME280;62523;53.336;83.690;2023-05-29T12:07:26;99497.41;;;10.96;100.00
74169;BME280;62523;53.336;83.690;2023-05-29T12:12:37;99506.09;;;10.82;100.00
74169;BME280;62523;53.336;83.690;2023-05-29T12:17:40;99508.91;;;11.11;100.00
74169;BME280;62523;53.336;83.690;2023-05-29T12:22:44;99488.00;;;11.08;100.00
74169;BME280;62523;53.336;83.690;2023-05-29T12:27:48;99500.50;;;11.04;100.00
74169;BME280;62523;53.336;83.690;2023-05-29T12:32:51;99506.25;;;11.27;100.00
74169;BME280;62523;53.336;83.690;2023-05-29T12:37:58;99499.53;;;11.37;100.00
74169;BME280;62523;53.336;83.690;2023-05-29T12:43:06;99494.16;;;11.39;100.00
74169;BME280;62523;53.336;83.690;2023-05-29T12:48:10;99492.88;;;11.46;100.00
74169;BME280;62523;53.336;83.690;2023-05-29T12:53:13;99484.84;;;11.63;100.00
74169;BME280;62523;53.336;83.690;2023-05-29T12:58:15;99485.72;;;11.48;100.00
74169;BME280;62523;53.336;83.690;2023-05-29T13:03:17;99477.19;;;11.59;100.00
74169;BME280;62523;53.336;83.690;2023-05-29T13:08:19;99482.25;;;11.47;100.00
74169;BME280;62523;53.336;83.690;2023-05-29T13:13:21;99463.31;;;11.25;100.00
74169;BME280;62523;53.336;83.690;2023-05-29T13:18:23;99466.84;;;11.40;100.00
74169;BME280;62523;53.336;83.690;2023-05-29T13:23:25;99467.47;;;11.29;100.00
74169;BME280;62523;53.336;83.690;2023-05-29T13:28:27;99473.09;;;11.23;100.00
74169;BME280;62523;53.336;83.690;2023-05-29T13:33:29;99463.94;;;11.14;100.00
74169;BME280;62523;53.336;83.690;2023-05-29T13:38:31;99458.78;;;11.43;100.00
74169;BME280;62523;53.336;83.690;2023-05-29T13:43:32;99455.22;;;11.28;100.00
74169;BME280;62523;53.336;83.690;2023-05-29T13:48:34;99443.25;;;11.06;100.00
74169;BME280;62523;53.336;83.690;2023-05-29T13:53:35;99445.47;;;10.98;100.00
74169;BME280;62523;53.336;83.690;2023-05-29T13:58:37;99439.28;;;10.99;100.00
74169;BME280;62523;53.336;83.690;2023-05-29T14:03:40;99447.34;;;10.80;100.00
74169;BME280;62523;53.336;83.690;2023-05-29T14:08:44;99443.78;;;10.65;100.00
74169;BME280;62523;53.336;83.690;2023-05-29T14:13:46;99439.66;;;10.44;100.00
74169;BME280;62523;53.336;83.690;2023-05-29T14:18:47;99436.34;;;10.40;100.00
74169;BME280;62523;53.336;83.690;2023-05-29T14:23:50;99434.53;;;10.41;100.00
74169;BME280;62523;53.336;83.690;2023-05-29T14:28:51;99446.59;;;10.29;100.00
74169;BME280;62523;53.336;83.690;2023-05-29T14:33:53;99439.41;;;10.15;100.00
74169;BME280;62523;53.336;83.690;2023-05-29T14:38:55;99433.19;;;10.16;100.00
74169;BME280;62523;53.336;83.690;2023-05-29T14:43:58;99443.19;;;10.10;100.00
74169;BME280;62523;53.336;83.690;2023-05-29T14:49:01;99431.13;;;10.05;100.00
74169;BME280;62523;53.336;83.690;2023-05-29T14:54:03;99429.84;;;9.97;100.00
74169;BME280;62523;53.336;83.690;2023-05-29T14:59:04;99428.19;;;10.12;100.00
74169;BME280;62523;53.336;83.690;2023-05-29T15:04:06;99428.50;;;10.05;100.00
74169;BME280;62523;53.336;83.690;2023-05-29T15:09:07;99454.09;;;10.19;100.00
74169;BME280;62523;53.336;83.690;2023-05-29T15:14:09;99454.84;;;10.21;100.00
74169;BME280;62523;53.336;83.690;2023-05-29T15:19:11;99461.97;;;10.19;100.00
74169;BME280;62523;53.336;83.690;2023-05-29T15:24:13;99454.56;;;10.10;100.00
74169;BME280;62523;53.336;83.690;2023-05-29T15:29:15;99448.00;;;10.01;100.00
74169;BME280;62523;53.336;83.690;2023-05-29T15:34:19;99450.66;;;10.01;100.00
74169;BME280;62523;53.336;83.690;2023-05-29T15:39:21;99451.25;;;10.07;100.00
74169;BME280;62523;53.336;83.690;2023-05-29T15:44:23;99462.25;;;9.97;100.00
74169;BME280;62523;53.336;83.690;2023-05-29T15:49:24;99442.22;;;9.95;100.00
74169;BME280;62523;53.336;83.690;2023-05-29T15:54:26;99442.28;;;9.93;100.00
74169;BME280;62523;53.336;83.690;2023-05-29T15:59:30;99439.06;;;9.88;100.00
74169;BME280;62523;53.336;83.690;2023-05-29T16:04:32;99428.34;;;9.91;100.00
74169;BME280;62523;53.336;83.690;2023-05-29T16:09:33;99417.06;;;9.89;100.00
74169;BME280;62523;53.336;83.690;2023-05-29T16:14:35;99412.81;;;9.87;100.00
74169;BME280;62523;53.336;83.690;2023-05-29T16:19:36;99422.44;;;9.88;100.00
74169;BME280;62523;53.336;83.690;2023-05-29T16:24:38;99426.03;;;9.85;100.00
74169;BME280;62523;53.336;83.690;2023-05-29T16:29:39;99428.53;;;9.88;100.00
74169;BME280;62523;53.336;83.690;2023-05-29T16:34:41;99433.78;;;9.88;100.00
74169;BME280;62523;53.336;83.690;2023-05-29T16:39:43;99425.44;;;9.80;100.00
74169;BME280;62523;53.336;83.690;2023-05-29T16:44:45;99432.19;;;9.86;100.00
74169;BME280;62523;53.336;83.690;2023-05-29T16:49:47;99422.44;;;9.70;100.00
74169;BME280;62523;53.336;83.690;2023-05-29T16:54:48;99423.13;;;9.74;100.00
74169;BME280;62523;53.336;83.690;2023-05-29T16:59:50;99419.41;;;9.78;100.00
74169;BME280;62523;53.336;83.690;2023-05-29T17:04:51;99409.28;;;9.70;100.00
74169;BME280;62523;53.336;83.690;2023-05-29T17:09:53;99418.88;;;9.71;100.00
74169;BME280;62523;53.336;83.690;2023-05-29T17:14:54;99391.66;;;9.72;100.00
74169;BME280;62523;53.336;83.690;2023-05-29T17:19:56;99387.53;;;9.67;100.00
74169;BME280;62523;53.336;83.690;2023-05-29T17:24:57;99395.81;;;9.59;100.00
74169;BME280;62523;53.336;83.690;2023-05-29T17:29:59;99389.66;;;9.60;100.00
74169;BME280;62523;53.336;83.690;2023-05-29T17:35:00;99386.25;;;9.58;100.00
74169;BME280;62523;53.336;83.690;2023-05-29T17:40:06;99390.56;;;9.59;100.00
74169;BME280;62523;53.336;83.690;2023-05-29T17:45:08;99393.34;;;9.56;100.00
74169;BME280;62523;53.336;83.690;2023-05-29T17:50:10;99405.00;;;9.85;100.00
74169;BME280;62523;53.336;83.690;2023-05-29T17:55:11;99415.22;;;9.74;100.00
74169;BME280;62523;53.336;83.690;2023-05-29T18:00:13;99412.91;;;9.68;100.00
74169;BME280;62523;53.336;83.690;2023-05-29T18:05:15;99422.13;;;9.59;100.00
74169;BME280;62523;53.336;83.690;2023-05-29T18:10:16;99418.72;;;9.57;100.00
74169;BME280;62523;53.336;83.690;2023-05-29T18:15:22;99417.25;;;9.51;100.00
74169;BME280;62523;53.336;83.690;2023-05-29T18:20:25;99411.16;;;9.51;100.00
74169;BME280;62523;53.336;83.690;2023-05-29T18:25:30;99409.69;;;9.45;100.00
74169;BME280;62523;53.336;83.690;2023-05-29T18:30:32;99407.97;;;9.44;100.00
74169;BME280;62523;53.336;83.690;2023-05-29T18:35:34;99402.03;;;9.40;100.00
74169;BME280;62523;53.336;83.690;2023-05-29T18:40:36;99399.75;;;9.50;100.00
74169;BME280;62523;53.336;83.690;2023-05-29T18:45:38;99395.81;;;9.41;100.00
74169;BME280;62523;53.336;83.690;2023-05-29T18:50:40;99394.03;;;9.42;100.00
74169;BME280;62523;53.336;83.690;2023-05-29T18:55:41;99388.88;;;9.40;100.00
74169;BME280;62523;53.336;83.690;2023-05-29T19:00:43;99390.31;;;9.29;100.00
74169;BME280;62523;53.336;83.690;2023-05-29T19:05:44;99393.91;;;9.28;100.00
74169;BME280;62523;53.336;83.690;2023-05-29T19:10:46;99381.34;;;9.33;100.00
74169;BME280;62523;53.336;83.690;2023-05-29T19:15:48;99380.53;;;9.32;100.00
74169;BME280;62523;53.336;83.690;2023-05-29T19:20:50;99367.13;;;9.37;100.00
74169;BME280;62523;53.336;83.690;2023-05-29T19:25:52;99356.84;;;9.32;100.00
74169;BME280;62523;53.336;83.690;2023-05-29T19:30:55;99368.44;;;9.46;100.00
74169;BME280;62523;53.336;83.690;2023-05-29T19:35:57;99374.34;;;9.51;100.00
74169;BME280;62523;53.336;83.690;2023-05-29T19:40:59;99372.03;;;9.45;100.00
74169;BME280;62523;53.336;83.690;2023-05-29T19:46:01;99371.06;;;9.46;100.00
74169;BME280;62523;53.336;83.690;2023-05-29T19:51:03;99362.34;;;9.45;100.00
74169;BME280;62523;53.336;83.690;2023-05-29T19:56:05;99356.16;;;9.46;100.00
74169;BME280;62523;53.336;83.690;2023-05-29T20:01:07;99353.75;;;9.41;100.00
74169;BME280;62523;53.336;83.690;2023-05-29T20:06:09;99347.59;;;9.42;100.00
74169;BME280;62523;53.336;83.690;2023-05-29T20:11:11;99352.91;;;9.41;100.00
74169;BME280;62523;53.336;83.690;2023-05-29T20:16:12;99346.81;;;9.40;100.00
74169;BME280;62523;53.336;83.690;2023-05-29T20:21:13;99346.63;;;9.43;100.00
74169;BME280;62523;53.336;83.690;2023-05-29T20:26:15;99345.25;;;9.36;100.00
74169;BME280;62523;53.336;83.690;2023-05-29T20:31:16;99344.94;;;9.42;100.00
74169;BME280;62523;53.336;83.690;2023-05-29T20:36:18;99344.19;;;9.40;100.00
74169;BME280;62523;53.336;83.690;2023-05-29T20:41:22;99340.59;;;9.41;100.00
74169;BME280;62523;53.336;83.690;2023-05-29T20:46:23;99348.34;;;9.45;100.00
74169;BME280;62523;53.336;83.690;2023-05-29T20:51:26;99344.16;;;9.58;100.00
74169;BME280;62523;53.336;83.690;2023-05-29T20:56:28;99348.78;;;9.53;100.00
74169;BME280;62523;53.336;83.690;2023-05-29T21:01:29;99350.03;;;9.46;100.00
74169;BME280;62523;53.336;83.690;2023-05-29T21:06:31;99349.13;;;9.47;100.00
74169;BME280;62523;53.336;83.690;2023-05-29T21:11:33;99352.91;;;9.41;100.00
74169;BME280;62523;53.336;83.690;2023-05-29T21:16:34;99353.28;;;9.33;100.00
74169;BME280;62523;53.336;83.690;2023-05-29T21:21:35;99353.81;;;9.22;100.00
74169;BME280;62523;53.336;83.690;2023-05-29T21:26:40;99354.84;;;9.20;100.00
74169;BME280;62523;53.336;83.690;2023-05-29T21:31:42;99357.00;;;9.12;100.00
74169;BME280;62523;53.336;83.690;2023-05-29T21:36:43;99363.56;;;9.03;100.00
74169;BME280;62523;53.336;83.690;2023-05-29T21:41:45;99367.66;;;8.91;100.00
74169;BME280;62523;53.336;83.690;2023-05-29T21:46:47;99368.09;;;8.82;100.00
74169;BME280;62523;53.336;83.690;2023-05-29T21:51:48;99370.72;;;8.82;100.00
74169;BME280;62523;53.336;83.690;2023-05-29T21:56:51;99370.38;;;8.71;100.00
74169;BME280;62523;53.336;83.690;2023-05-29T22:01:53;99374.06;;;8.67;100.00
74169;BME280;62523;53.336;83.690;2023-05-29T22:06:55;99374.28;;;8.62;100.00
74169;BME280;62523;53.336;83.690;2023-05-29T22:11:56;99364.78;;;8.59;100.00
74169;BME280;62523;53.336;83.690;2023-05-29T22:16:58;99367.06;;;8.67;100.00
74169;BME280;62523;53.336;83.690;2023-05-29T22:22:02;99370.81;;;8.61;100.00
74169;BME280;62523;53.336;83.690;2023-05-29T22:27:04;99369.91;;;8.63;100.00
74169;BME280;62523;53.336;83.690;2023-05-29T22:32:07;99374.00;;;8.68;100.00
74169;BME280;62523;53.336;83.690;2023-05-29T22:37:08;99382.75;;;8.86;100.00
74169;BME280;62523;53.336;83.690;2023-05-29T22:42:10;99384.28;;;8.73;100.00
74169;BME280;62523;53.336;83.690;2023-05-29T22:47:11;99386.78;;;8.76;100.00
74169;BME280;62523;53.336;83.690;2023-05-29T22:52:13;99391.81;;;8.80;100.00
74169;BME280;62523;53.336;83.690;2023-05-29T22:57:15;99390.25;;;8.76;100.00
74169;BME280;62523;53.336;83.690;2023-05-29T23:02:16;99396.13;;;8.81;100.00
74169;BME280;62523;53.336;83.690;2023-05-29T23:07:18;99397.84;;;8.82;100.00
74169;BME280;62523;53.336;83.690;2023-05-29T23:12:20;99395.84;;;8.88;100.00
74169;BME280;62523;53.336;83.690;2023-05-29T23:17:22;99400.44;;;9.01;100.00
74169;BME280;62523;53.336;83.690;2023-05-29T23:22:24;99401.00;;;9.08;100.00
74169;BME280;62523;53.336;83.690;2023-05-29T23:27:25;99395.03;;;9.22;100.00
74169;BME280;62523;53.336;83.690;2023-05-29T23:32:36;99403.44;;;9.11;100.00
74169;BME280;62523;53.336;83.690;2023-05-29T23:37:38;99401.84;;;9.09;100.00
74169;BME280;62523;53.336;83.690;2023-05-29T23:42:39;99406.34;;;9.24;100.00
74169;BME280;62523;53.336;83.690;2023-05-29T23:47:41;99406.44;;;9.40;100.00
74169;BME280;62523;53.336;83.690;2023-05-29T23:52:42;99401.84;;;9.26;100.00
74169;BME280;62523;53.336;83.690;2023-05-29T23:57:44;99409.97;;;9.21;100.00
